Terminal Aerodrome Forecast
Issued by NWS Buffalo, NY

Home | Current Version | Previous Version | Text Only | Print | Product List | Glossary On
Versions: 1 2 3 4 5 6 7 8 9 10 11 12 13 14 15 16 17 18 19 20 21 22 23 24 25 26 27 28 29 30
000
FTUS41 KBUF 030947 AAC
TAFART
TAF AMD
KART 030947Z 0310/0406 21008KT P6SM SCT120 OVC200
     FM031200 22010G18KT P6SM BKN120
     FM031500 22015G22KT P6SM VCTS SCT025 BKN050CB
     FM032200 22013KT P6SM BKN040
     FM040100 22008KT P6SM SCT110=

USA.gov is the U.S. government's official web portal to all federal, state and local government web resources and services.